sensor_id;sensor_type;location;lat;lon;timestamp;pressure;altitude;pressure_sealevel;temperature
35582;BMP180;21687;48.900;9.188;2023-12-20T00:01:03;98415.00;;;5.70
35582;BMP180;21687;48.900;9.188;2023-12-20T00:03:29;98413.00;;;5.70
35582;BMP180;21687;48.900;9.188;2023-12-20T00:05:55;98414.00;;;5.60
35582;BMP180;21687;48.900;9.188;2023-12-20T00:08:22;98412.00;;;5.60
35582;BMP180;21687;48.900;9.188;2023-12-20T00:10:48;98410.00;;;5.60
35582;BMP180;21687;48.900;9.188;2023-12-20T00:13:15;98408.00;;;5.60
35582;BMP180;21687;48.900;9.188;2023-12-20T00:15:41;98398.00;;;5.50
35582;BMP180;21687;48.900;9.188;2023-12-20T00:18:07;98399.00;;;5.50
35582;BMP180;21687;48.900;9.188;2023-12-20T00:20:33;98386.00;;;5.50
35582;BMP180;21687;48.900;9.188;2023-12-20T00:23:00;98386.00;;;5.40
35582;BMP180;21687;48.900;9.188;2023-12-20T00:25:26;98400.00;;;5.40
35582;BMP180;21687;48.900;9.188;2023-12-20T00:27:53;98390.00;;;5.30
35582;BMP180;21687;48.900;9.188;2023-12-20T00:30:19;98386.00;;;5.40
35582;BMP180;21687;48.900;9.188;2023-12-20T00:32:45;98384.00;;;5.40
35582;BMP180;21687;48.900;9.188;2023-12-20T00:35:15;98378.00;;;5.30
35582;BMP180;21687;48.900;9.188;2023-12-20T00:37:44;98386.00;;;5.30
35582;BMP180;21687;48.900;9.188;2023-12-20T00:40:11;98390.00;;;5.30
35582;BMP180;21687;48.900;9.188;2023-12-20T00:42:38;98373.00;;;5.30
35582;BMP180;21687;48.900;9.188;2023-12-20T00:45:05;98383.00;;;5.20
35582;BMP180;21687;48.900;9.188;2023-12-20T00:47:31;98379.00;;;5.20
35582;BMP180;21687;48.900;9.188;2023-12-20T00:49:58;98384.00;;;5.10
35582;BMP180;21687;48.900;9.188;2023-12-20T00:52:25;98379.00;;;5.00
35582;BMP180;21687;48.900;9.188;2023-12-20T00:54:53;98380.00;;;5.10
35582;BMP180;21687;48.900;9.188;2023-12-20T00:57:19;98379.00;;;5.10
35582;BMP180;21687;48.900;9.188;2023-12-20T00:59:45;98396.00;;;5.10
35582;BMP180;21687;48.900;9.188;2023-12-20T01:02:11;98390.00;;;5.10
35582;BMP180;21687;48.900;9.188;2023-12-20T01:04:38;98383.00;;;5.10
35582;BMP180;21687;48.900;9.188;2023-12-20T01:07:04;98382.00;;;5.10
35582;BMP180;21687;48.900;9.188;2023-12-20T01:09:30;98379.00;;;5.10
35582;BMP180;21687;48.900;9.188;2023-12-20T01:11:57;98387.00;;;5.10
35582;BMP180;21687;48.900;9.188;2023-12-20T01:14:23;98385.00;;;5.00
35582;BMP180;21687;48.900;9.188;2023-12-20T01:16:49;98399.00;;;5.00
35582;BMP180;21687;48.900;9.188;2023-12-20T01:19:15;98373.00;;;5.00
35582;BMP180;21687;48.900;9.188;2023-12-20T01:21:42;98384.00;;;4.90
35582;BMP180;21687;48.900;9.188;2023-12-20T01:24:08;98382.00;;;5.00
35582;BMP180;21687;48.900;9.188;2023-12-20T01:26:35;98389.00;;;4.90
35582;BMP180;21687;48.900;9.188;2023-12-20T01:29:01;98394.00;;;4.90
35582;BMP180;21687;48.900;9.188;2023-12-20T01:31:28;98396.00;;;5.00
35582;BMP180;21687;48.900;9.188;2023-12-20T01:33:54;98393.00;;;4.90
35582;BMP180;21687;48.900;9.188;2023-12-20T01:36:20;98401.00;;;4.90
35582;BMP180;21687;48.900;9.188;2023-12-20T01:38:46;98399.00;;;4.90
35582;BMP180;21687;48.900;9.188;2023-12-20T01:41:12;98401.00;;;5.00
35582;BMP180;21687;48.900;9.188;2023-12-20T01:43:39;98400.00;;;5.00
35582;BMP180;21687;48.900;9.188;2023-12-20T01:46:05;98399.00;;;5.00
35582;BMP180;21687;48.900;9.188;2023-12-20T01:48:32;98397.00;;;5.00
35582;BMP180;21687;48.900;9.188;2023-12-20T01:50:59;98392.00;;;5.10
35582;BMP180;21687;48.900;9.188;2023-12-20T01:53:27;98386.00;;;5.00
35582;BMP180;21687;48.900;9.188;2023-12-20T01:55:55;98396.00;;;5.00
35582;BMP180;21687;48.900;9.188;2023-12-20T01:58:22;98391.00;;;5.10
35582;BMP180;21687;48.900;9.188;2023-12-20T02:00:49;98395.00;;;5.00
35582;BMP180;21687;48.900;9.188;2023-12-20T02:03:17;98391.00;;;5.00
35582;BMP180;21687;48.900;9.188;2023-12-20T02:05:44;98378.00;;;5.00
35582;BMP180;21687;48.900;9.188;2023-12-20T02:08:11;98382.00;;;5.00
35582;BMP180;21687;48.900;9.188;2023-12-20T02:10:38;98381.00;;;5.00
35582;BMP180;21687;48.900;9.188;2023-12-20T02:13:04;98386.00;;;5.00
35582;BMP180;21687;48.900;9.188;2023-12-20T02:15:31;98387.00;;;5.10
35582;BMP180;21687;48.900;9.188;2023-12-20T02:17:57;98392.00;;;5.10
35582;BMP180;21687;48.900;9.188;2023-12-20T02:20:23;98391.00;;;5.10
35582;BMP180;21687;48.900;9.188;2023-12-20T02:22:50;98393.00;;;5.10
35582;BMP180;21687;48.900;9.188;2023-12-20T02:25:16;98395.00;;;5.20
35582;BMP180;21687;48.900;9.188;2023-12-20T02:27:42;98384.00;;;5.20
35582;BMP180;21687;48.900;9.188;2023-12-20T02:30:11;98390.00;;;5.30
35582;BMP180;21687;48.900;9.188;2023-12-20T02:32:38;98386.00;;;5.30
35582;BMP180;21687;48.900;9.188;2023-12-20T02:35:04;98383.00;;;5.30
35582;BMP180;21687;48.900;9.188;2023-12-20T02:37:32;98383.00;;;5.30
35582;BMP180;21687;48.900;9.188;2023-12-20T02:39:59;98392.00;;;5.30
35582;BMP180;21687;48.900;9.188;2023-12-20T02:42:25;98382.00;;;5.30
35582;BMP180;21687;48.900;9.188;2023-12-20T02:45:26;98388.00;;;5.30
35582;BMP180;21687;48.900;9.188;2023-12-20T02:47:53;98388.00;;;5.30
35582;BMP180;21687;48.900;9.188;2023-12-20T02:50:19;98382.00;;;5.30
35582;BMP180;21687;48.900;9.188;2023-12-20T02:52:46;98380.00;;;5.30
35582;BMP180;21687;48.900;9.188;2023-12-20T02:55:12;98376.00;;;5.30
35582;BMP180;21687;48.900;9.188;2023-12-20T02:57:38;98383.00;;;5.30
35582;BMP180;21687;48.900;9.188;2023-12-20T03:00:09;98389.00;;;5.30
35582;BMP180;21687;48.900;9.188;2023-12-20T03:02:36;98392.00;;;5.30
35582;BMP180;21687;48.900;9.188;2023-12-20T03:05:02;98384.00;;;5.20
35582;BMP180;21687;48.900;9.188;2023-12-20T03:07:29;98381.00;;;5.20
35582;BMP180;21687;48.900;9.188;2023-12-20T03:09:55;98387.00;;;5.20
35582;BMP180;21687;48.900;9.188;2023-12-20T03:12:21;98395.00;;;5.20
35582;BMP180;21687;48.900;9.188;2023-12-20T03:14:48;98395.00;;;5.10
35582;BMP180;21687;48.900;9.188;2023-12-20T03:17:16;98381.00;;;5.10
35582;BMP180;21687;48.900;9.188;2023-12-20T03:19:42;98400.00;;;5.10
35582;BMP180;21687;48.900;9.188;2023-12-20T03:22:09;98394.00;;;5.10
35582;BMP180;21687;48.900;9.188;2023-12-20T03:24:35;98409.00;;;5.00
35582;BMP180;21687;48.900;9.188;2023-12-20T03:27:01;98409.00;;;5.00
35582;BMP180;21687;48.900;9.188;2023-12-20T03:29:28;98400.00;;;5.00
35582;BMP180;21687;48.900;9.188;2023-12-20T03:31:54;98402.00;;;5.00
35582;BMP180;21687;48.900;9.188;2023-12-20T03:34:20;98397.00;;;5.00
35582;BMP180;21687;48.900;9.188;2023-12-20T03:36:47;98404.00;;;5.00
35582;BMP180;21687;48.900;9.188;2023-12-20T03:39:14;98397.00;;;5.00
35582;BMP180;21687;48.900;9.188;2023-12-20T03:41:40;98404.00;;;5.00
35582;BMP180;21687;48.900;9.188;2023-12-20T03:44:06;98410.00;;;5.00
35582;BMP180;21687;48.900;9.188;2023-12-20T03:46:33;98407.00;;;4.90
35582;BMP180;21687;48.900;9.188;2023-12-20T03:48:59;98412.00;;;4.90
35582;BMP180;21687;48.900;9.188;2023-12-20T03:51:25;98407.00;;;4.90
35582;BMP180;21687;48.900;9.188;2023-12-20T03:53:51;98405.00;;;4.90
35582;BMP180;21687;48.900;9.188;2023-12-20T03:56:18;98414.00;;;4.90
35582;BMP180;21687;48.900;9.188;2023-12-20T03:58:44;98400.00;;;4.90
35582;BMP180;21687;48.900;9.188;2023-12-20T04:01:10;98414.00;;;4.90
35582;BMP180;21687;48.900;9.188;2023-12-20T04:03:39;98410.00;;;4.90
35582;BMP180;21687;48.900;9.188;2023-12-20T04:06:06;98406.00;;;4.90
35582;BMP180;21687;48.900;9.188;2023-12-20T04:08:32;98414.00;;;4.90
35582;BMP180;21687;48.900;9.188;2023-12-20T04:10:58;98403.00;;;4.90
35582;BMP180;21687;48.900;9.188;2023-12-20T04:13:25;98407.00;;;4.80
35582;BMP180;21687;48.900;9.188;2023-12-20T04:15:51;98407.00;;;4.80
35582;BMP180;21687;48.900;9.188;2023-12-20T04:18:18;98411.00;;;4.80
35582;BMP180;21687;48.900;9.188;2023-12-20T04:20:44;98417.00;;;4.80
35582;BMP180;21687;48.900;9.188;2023-12-20T04:23:11;98409.00;;;4.80
35582;BMP180;21687;48.900;9.188;2023-12-20T04:25:37;98416.00;;;4.80
35582;BMP180;21687;48.900;9.188;2023-12-20T04:28:03;98421.00;;;4.80
35582;BMP180;21687;48.900;9.188;2023-12-20T04:30:30;98424.00;;;4.80
35582;BMP180;21687;48.900;9.188;2023-12-20T04:32:56;98422.00;;;4.80
35582;BMP180;21687;48.900;9.188;2023-12-20T04:35:23;98434.00;;;4.80
35582;BMP180;21687;48.900;9.188;2023-12-20T04:37:49;98438.00;;;4.80
35582;BMP180;21687;48.900;9.188;2023-12-20T04:40:15;98437.00;;;4.80
35582;BMP180;21687;48.900;9.188;2023-12-20T04:42:42;98439.00;;;4.80
35582;BMP180;21687;48.900;9.188;2023-12-20T04:45:08;98449.00;;;4.80
35582;BMP180;21687;48.900;9.188;2023-12-20T04:47:35;98444.00;;;4.90
35582;BMP180;21687;48.900;9.188;2023-12-20T04:50:01;98460.00;;;4.90
35582;BMP180;21687;48.900;9.188;2023-12-20T04:52:28;98457.00;;;4.90
35582;BMP180;21687;48.900;9.188;2023-12-20T04:54:54;98451.00;;;4.90
35582;BMP180;21687;48.900;9.188;2023-12-20T04:57:21;98445.00;;;5.00
35582;BMP180;21687;48.900;9.188;2023-12-20T04:59:48;98461.00;;;4.90
35582;BMP180;21687;48.900;9.188;2023-12-20T05:02:14;98453.00;;;4.90
35582;BMP180;21687;48.900;9.188;2023-12-20T05:04:40;98451.00;;;5.00
35582;BMP180;21687;48.900;9.188;2023-12-20T05:07:07;98447.00;;;5.00
35582;BMP180;21687;48.900;9.188;2023-12-20T05:09:33;98446.00;;;5.00
35582;BMP180;21687;48.900;9.188;2023-12-20T05:12:00;98464.00;;;5.00
35582;BMP180;21687;48.900;9.188;2023-12-20T05:14:27;98464.00;;;5.00
35582;BMP180;21687;48.900;9.188;2023-12-20T05:16:53;98467.00;;;5.00
35582;BMP180;21687;48.900;9.188;2023-12-20T05:19:19;98460.00;;;5.10
35582;BMP180;21687;48.900;9.188;2023-12-20T05:21:45;98459.00;;;5.10
35582;BMP180;21687;48.900;9.188;2023-12-20T05:24:12;98464.00;;;5.10
35582;BMP180;21687;48.900;9.188;2023-12-20T05:26:38;98477.00;;;5.10
35582;BMP180;21687;48.900;9.188;2023-12-20T05:29:04;98480.00;;;5.10
35582;BMP180;21687;48.900;9.188;2023-12-20T05:31:32;98480.00;;;5.10
35582;BMP180;21687;48.900;9.188;2023-12-20T05:33:58;98479.00;;;5.10
35582;BMP180;21687;48.900;9.188;2023-12-20T05:36:25;98482.00;;;5.10
35582;BMP180;21687;48.900;9.188;2023-12-20T05:38:51;98491.00;;;5.10
35582;BMP180;21687;48.900;9.188;2023-12-20T05:41:17;98488.00;;;5.10
35582;BMP180;21687;48.900;9.188;2023-12-20T05:43:43;98492.00;;;5.10
35582;BMP180;21687;48.900;9.188;2023-12-20T05:46:13;98488.00;;;5.20
35582;BMP180;21687;48.900;9.188;2023-12-20T05:48:39;98503.00;;;5.10
35582;BMP180;21687;48.900;9.188;2023-12-20T05:51:05;98505.00;;;5.10
35582;BMP180;21687;48.900;9.188;2023-12-20T05:53:31;98513.00;;;5.20
35582;BMP180;21687;48.900;9.188;2023-12-20T05:55:58;98510.00;;;5.20
35582;BMP180;21687;48.900;9.188;2023-12-20T05:58:24;98507.00;;;5.20
35582;BMP180;21687;48.900;9.188;2023-12-20T06:00:50;98522.00;;;5.20
35582;BMP180;21687;48.900;9.188;2023-12-20T06:03:17;98528.00;;;5.20
35582;BMP180;21687;48.900;9.188;2023-12-20T06:05:43;98529.00;;;5.20
35582;BMP180;21687;48.900;9.188;2023-12-20T06:08:10;98537.00;;;5.30
35582;BMP180;21687;48.900;9.188;2023-12-20T06:10:36;98541.00;;;5.20
35582;BMP180;21687;48.900;9.188;2023-12-20T06:13:02;98538.00;;;5.30
35582;BMP180;21687;48.900;9.188;2023-12-20T06:15:33;98543.00;;;5.30
35582;BMP180;21687;48.900;9.188;2023-12-20T06:17:59;98550.00;;;5.30
35582;BMP180;21687;48.900;9.188;2023-12-20T06:20:27;98531.00;;;5.30
35582;BMP180;21687;48.900;9.188;2023-12-20T06:22:53;98527.00;;;5.30
35582;BMP180;21687;48.900;9.188;2023-12-20T06:25:19;98535.00;;;5.30
35582;BMP180;21687;48.900;9.188;2023-12-20T06:27:46;98527.00;;;5.30
35582;BMP180;21687;48.900;9.188;2023-12-20T06:30:12;98528.00;;;5.20
35582;BMP180;21687;48.900;9.188;2023-12-20T06:32:39;98530.00;;;5.20
35582;BMP180;21687;48.900;9.188;2023-12-20T06:35:06;98542.00;;;5.20
35582;BMP180;21687;48.900;9.188;2023-12-20T06:37:32;98540.00;;;5.20
35582;BMP180;21687;48.900;9.188;2023-12-20T06:39:58;98545.00;;;5.20
35582;BMP180;21687;48.900;9.188;2023-12-20T06:42:25;98545.00;;;5.20
35582;BMP180;21687;48.900;9.188;2023-12-20T06:44:51;98544.00;;;5.20
35582;BMP180;21687;48.900;9.188;2023-12-20T06:47:17;98531.00;;;5.30
35582;BMP180;21687;48.900;9.188;2023-12-20T06:49:43;98549.00;;;5.20
35582;BMP180;21687;48.900;9.188;2023-12-20T06:52:10;98563.00;;;5.20
35582;BMP180;21687;48.900;9.188;2023-12-20T06:54:36;98554.00;;;5.20
35582;BMP180;21687;48.900;9.188;2023-12-20T06:57:02;98561.00;;;5.20
35582;BMP180;21687;48.900;9.188;2023-12-20T06:59:30;98560.00;;;5.20
35582;BMP180;21687;48.900;9.188;2023-12-20T07:01:56;98567.00;;;5.20
35582;BMP180;21687;48.900;9.188;2023-12-20T07:04:22;98569.00;;;5.20
35582;BMP180;21687;48.900;9.188;2023-12-20T07:06:49;98565.00;;;5.20
35582;BMP180;21687;48.900;9.188;2023-12-20T07:09:22;98571.00;;;5.20
35582;BMP180;21687;48.900;9.188;2023-12-20T07:11:49;98584.00;;;5.20
35582;BMP180;21687;48.900;9.188;2023-12-20T07:14:15;98590.00;;;5.20
35582;BMP180;21687;48.900;9.188;2023-12-20T07:16:42;98587.00;;;5.20
35582;BMP180;21687;48.900;9.188;2023-12-20T07:19:08;98598.00;;;5.20
35582;BMP180;21687;48.900;9.188;2023-12-20T07:21:34;98603.00;;;5.20
35582;BMP180;21687;48.900;9.188;2023-12-20T07:24:01;98603.00;;;5.10
35582;BMP180;21687;48.900;9.188;2023-12-20T07:26:27;98599.00;;;5.20
35582;BMP180;21687;48.900;9.188;2023-12-20T07:28:53;98598.00;;;5.20
35582;BMP180;21687;48.900;9.188;2023-12-20T07:31:20;98605.00;;;5.10
35582;BMP180;21687;48.900;9.188;2023-12-20T07:33:46;98599.00;;;5.10
35582;BMP180;21687;48.900;9.188;2023-12-20T07:36:13;98618.00;;;5.10
35582;BMP180;21687;48.900;9.188;2023-12-20T07:38:39;98602.00;;;5.10
35582;BMP180;21687;48.900;9.188;2023-12-20T07:41:05;98618.00;;;5.10
35582;BMP180;21687;48.900;9.188;2023-12-20T07:43:31;98615.00;;;5.00
35582;BMP180;21687;48.900;9.188;2023-12-20T07:46:03;98619.00;;;5.00
35582;BMP180;21687;48.900;9.188;2023-12-20T07:48:29;98614.00;;;5.00
35582;BMP180;21687;48.900;9.188;2023-12-20T07:50:55;98618.00;;;4.90
35582;BMP180;21687;48.900;9.188;2023-12-20T07:53:22;98624.00;;;4.80
35582;BMP180;21687;48.900;9.188;2023-12-20T07:55:48;98632.00;;;4.70
35582;BMP180;21687;48.900;9.188;2023-12-20T07:58:14;98638.00;;;4.60
35582;BMP180;21687;48.900;9.188;2023-12-20T08:00:41;98637.00;;;4.50
35582;BMP180;21687;48.900;9.188;2023-12-20T08:03:07;98630.00;;;4.50
35582;BMP180;21687;48.900;9.188;2023-12-20T08:05:33;98614.00;;;4.50
35582;BMP180;21687;48.900;9.188;2023-12-20T08:07:59;98629.00;;;4.40
35582;BMP180;21687;48.900;9.188;2023-12-20T08:10:26;98639.00;;;4.40
35582;BMP180;21687;48.900;9.188;2023-12-20T08:12:55;98628.00;;;4.40
35582;BMP180;21687;48.900;9.188;2023-12-20T08:15:22;98633.00;;;4.30
35582;BMP180;21687;48.900;9.188;2023-12-20T08:17:48;98643.00;;;4.30
35582;BMP180;21687;48.900;9.188;2023-12-20T08:20:17;98645.00;;;4.30
35582;BMP180;21687;48.900;9.188;2023-12-20T08:22:43;98649.00;;;4.30
35582;BMP180;21687;48.900;9.188;2023-12-20T08:25:09;98644.00;;;4.30
35582;BMP180;21687;48.900;9.188;2023-12-20T08:27:42;98636.00;;;4.20
35582;BMP180;21687;48.900;9.188;2023-12-20T08:30:11;98635.00;;;4.30
35582;BMP180;21687;48.900;9.188;2023-12-20T08:32:37;98645.00;;;4.30
35582;BMP180;21687;48.900;9.188;2023-12-20T08:35:04;98644.00;;;4.20
35582;BMP180;21687;48.900;9.188;2023-12-20T08:37:31;98656.00;;;4.30
35582;BMP180;21687;48.900;9.188;2023-12-20T08:39:57;98656.00;;;4.20
35582;BMP180;21687;48.900;9.188;2023-12-20T08:42:24;98649.00;;;4.30
35582;BMP180;21687;48.900;9.188;2023-12-20T08:44:51;98659.00;;;4.20
35582;BMP180;21687;48.900;9.188;2023-12-20T08:47:18;98669.00;;;4.20
35582;BMP180;21687;48.900;9.188;2023-12-20T08:49:45;98668.00;;;4.30
35582;BMP180;21687;48.900;9.188;2023-12-20T08:52:12;98673.00;;;4.30
35582;BMP180;21687;48.900;9.188;2023-12-20T08:54:38;98672.00;;;4.30
35582;BMP180;21687;48.900;9.188;2023-12-20T08:57:05;98676.00;;;4.30
35582;BMP180;21687;48.900;9.188;2023-12-20T08:59:33;98674.00;;;4.30
35582;BMP180;21687;48.900;9.188;2023-12-20T09:02:00;98669.00;;;4.30
35582;BMP180;21687;48.900;9.188;2023-12-20T09:04:26;98664.00;;;4.30
35582;BMP180;21687;48.900;9.188;2023-12-20T09:06:53;98670.00;;;4.30
35582;BMP180;21687;48.900;9.188;2023-12-20T09:09:19;98665.00;;;4.30
35582;BMP180;21687;48.900;9.188;2023-12-20T09:11:46;98659.00;;;4.30
35582;BMP180;21687;48.900;9.188;2023-12-20T09:14:14;98659.00;;;4.30
35582;BMP180;21687;48.900;9.188;2023-12-20T09:16:40;98664.00;;;4.30
35582;BMP180;21687;48.900;9.188;2023-12-20T09:19:07;98651.00;;;4.40
35582;BMP180;21687;48.900;9.188;2023-12-20T09:21:33;98661.00;;;4.40
35582;BMP180;21687;48.900;9.188;2023-12-20T09:23:59;98669.00;;;4.40
35582;BMP180;21687;48.900;9.188;2023-12-20T09:26:26;98663.00;;;4.40
35582;BMP180;21687;48.900;9.188;2023-12-20T09:28:52;98661.00;;;4.50
35582;BMP180;21687;48.900;9.188;2023-12-20T09:31:18;98658.00;;;4.60
35582;BMP180;21687;48.900;9.188;2023-12-20T09:33:45;98658.00;;;4.60
35582;BMP180;21687;48.900;9.188;2023-12-20T09:36:11;98664.00;;;4.60
35582;BMP180;21687;48.900;9.188;2023-12-20T09:38:37;98670.00;;;4.60
35582;BMP180;21687;48.900;9.188;2023-12-20T09:41:04;98679.00;;;4.60
35582;BMP180;21687;48.900;9.188;2023-12-20T09:43:31;98677.00;;;4.70
35582;BMP180;21687;48.900;9.188;2023-12-20T09:46:02;98681.00;;;4.70
35582;BMP180;21687;48.900;9.188;2023-12-20T09:48:32;98685.00;;;4.70
35582;BMP180;21687;48.900;9.188;2023-12-20T09:50:59;98690.00;;;4.80
35582;BMP180;21687;48.900;9.188;2023-12-20T09:53:25;98678.00;;;4.90
35582;BMP180;21687;48.900;9.188;2023-12-20T09:55:59;98681.00;;;4.90
35582;BMP180;21687;48.900;9.188;2023-12-20T09:58:54;98680.00;;;5.00
35582;BMP180;21687;48.900;9.188;2023-12-20T10:01:21;98677.00;;;5.10
35582;BMP180;21687;48.900;9.188;2023-12-20T10:03:48;98680.00;;;5.10
35582;BMP180;21687;48.900;9.188;2023-12-20T10:06:17;98682.00;;;5.10
35582;BMP180;21687;48.900;9.188;2023-12-20T10:08:43;98684.00;;;5.10
35582;BMP180;21687;48.900;9.188;2023-12-20T10:11:09;98684.00;;;5.20
35582;BMP180;21687;48.900;9.188;2023-12-20T10:13:40;98680.00;;;5.30
35582;BMP180;21687;48.900;9.188;2023-12-20T10:16:07;98675.00;;;5.30
35582;BMP180;21687;48.900;9.188;2023-12-20T10:18:33;98681.00;;;5.30
35582;BMP180;21687;48.900;9.188;2023-12-20T10:21:01;98682.00;;;5.40
35582;BMP180;21687;48.900;9.188;2023-12-20T10:23:27;98668.00;;;5.40
35582;BMP180;21687;48.900;9.188;2023-12-20T10:25:58;98660.00;;;5.40
35582;BMP180;21687;48.900;9.188;2023-12-20T10:28:25;98671.00;;;5.40
35582;BMP180;21687;48.900;9.188;2023-12-20T10:30:54;98663.00;;;5.40
35582;BMP180;21687;48.900;9.188;2023-12-20T10:33:26;98657.00;;;5.50
35582;BMP180;21687;48.900;9.188;2023-12-20T10:35:53;98659.00;;;5.60
35582;BMP180;21687;48.900;9.188;2023-12-20T10:38:20;98660.00;;;5.70
35582;BMP180;21687;48.900;9.188;2023-12-20T10:40:47;98644.00;;;5.80
35582;BMP180;21687;48.900;9.188;2023-12-20T10:43:14;98661.00;;;5.90
35582;BMP180;21687;48.900;9.188;2023-12-20T10:45:42;98669.00;;;6.00
35582;BMP180;21687;48.900;9.188;2023-12-20T10:48:11;98661.00;;;5.90
35582;BMP180;21687;48.900;9.188;2023-12-20T10:50:41;98663.00;;;5.90
35582;BMP180;21687;48.900;9.188;2023-12-20T10:53:08;98656.00;;;5.90
35582;BMP180;21687;48.900;9.188;2023-12-20T10:55:34;98657.00;;;6.00
35582;BMP180;21687;48.900;9.188;2023-12-20T10:58:02;98654.00;;;6.10
35582;BMP180;21687;48.900;9.188;2023-12-20T11:00:32;98647.00;;;6.30
35582;BMP180;21687;48.900;9.188;2023-12-20T11:03:03;98657.00;;;6.30
35582;BMP180;21687;48.900;9.188;2023-12-20T11:05:44;98666.00;;;6.40
35582;BMP180;21687;48.900;9.188;2023-12-20T11:08:17;98665.00;;;6.40
35582;BMP180;21687;48.900;9.188;2023-12-20T11:10:51;98655.00;;;6.40
35582;BMP180;21687;48.900;9.188;2023-12-20T11:13:28;98655.00;;;6.40
35582;BMP180;21687;48.900;9.188;2023-12-20T11:15:57;98643.00;;;6.40
35582;BMP180;21687;48.900;9.188;2023-12-20T11:18:29;98642.00;;;6.40
35582;BMP180;21687;48.900;9.188;2023-12-20T11:21:00;98653.00;;;6.30
35582;BMP180;21687;48.900;9.188;2023-12-20T11:23:26;98636.00;;;6.50
35582;BMP180;21687;48.900;9.188;2023-12-20T11:25:54;98637.00;;;6.60
35582;BMP180;21687;48.900;9.188;2023-12-20T11:28:25;98648.00;;;6.60
35582;BMP180;21687;48.900;9.188;2023-12-20T11:30:56;98647.00;;;6.60
35582;BMP180;21687;48.900;9.188;2023-12-20T11:33:45;98648.00;;;6.60
35582;BMP180;21687;48.900;9.188;2023-12-20T11:36:18;98655.00;;;6.40
35582;BMP180;21687;48.900;9.188;2023-12-20T11:38:57;98647.00;;;6.30
35582;BMP180;21687;48.900;9.188;2023-12-20T11:41:26;98646.00;;;6.20
35582;BMP180;21687;48.900;9.188;2023-12-20T11:43:56;98652.00;;;6.20
35582;BMP180;21687;48.900;9.188;2023-12-20T11:46:23;98658.00;;;6.10
35582;BMP180;21687;48.900;9.188;2023-12-20T11:48:49;98644.00;;;6.00
35582;BMP180;21687;48.900;9.188;2023-12-20T11:51:16;98648.00;;;6.10
35582;BMP180;21687;48.900;9.188;2023-12-20T11:53:42;98654.00;;;6.00
35582;BMP180;21687;48.900;9.188;2023-12-20T11:56:09;98648.00;;;6.00
35582;BMP180;21687;48.900;9.188;2023-12-20T11:58:36;98637.00;;;6.00
35582;BMP180;21687;48.900;9.188;2023-12-20T12:01:03;98631.00;;;6.00
35582;BMP180;21687;48.900;9.188;2023-12-20T12:03:30;98634.00;;;6.20
35582;BMP180;21687;48.900;9.188;2023-12-20T12:05:57;98627.00;;;6.30
35582;BMP180;21687;48.900;9.188;2023-12-20T12:08:24;98619.00;;;6.30
35582;BMP180;21687;48.900;9.188;2023-12-20T12:21:20;98617.00;;;6.80
35582;BMP180;21687;48.900;9.188;2023-12-20T12:23:47;98608.00;;;6.70
35582;BMP180;21687;48.900;9.188;2023-12-20T12:26:13;98612.00;;;6.70
35582;BMP180;21687;48.900;9.188;2023-12-20T12:28:43;98612.00;;;6.70
35582;BMP180;21687;48.900;9.188;2023-12-20T12:31:15;98605.00;;;6.80
35582;BMP180;21687;48.900;9.188;2023-12-20T12:33:43;98608.00;;;6.70
35582;BMP180;21687;48.900;9.188;2023-12-20T12:36:11;98607.00;;;6.60
35582;BMP180;21687;48.900;9.188;2023-12-20T12:38:38;98606.00;;;6.80
35582;BMP180;21687;48.900;9.188;2023-12-20T12:41:05;98613.00;;;6.70
35582;BMP180;21687;48.900;9.188;2023-12-20T12:43:33;98606.00;;;6.70
35582;BMP180;21687;48.900;9.188;2023-12-20T12:45:59;98603.00;;;6.60
35582;BMP180;21687;48.900;9.188;2023-12-20T12:48:25;98600.00;;;6.50
35582;BMP180;21687;48.900;9.188;2023-12-20T12:50:54;98607.00;;;6.60
35582;BMP180;21687;48.900;9.188;2023-12-20T12:53:20;98612.00;;;6.50
35582;BMP180;21687;48.900;9.188;2023-12-20T12:55:46;98610.00;;;6.50
35582;BMP180;21687;48.900;9.188;2023-12-20T12:58:13;98610.00;;;6.40
35582;BMP180;21687;48.900;9.188;2023-12-20T13:00:39;98610.00;;;6.50
35582;BMP180;21687;48.900;9.188;2023-12-20T13:03:08;98598.00;;;6.50
35582;BMP180;21687;48.900;9.188;2023-12-20T13:05:34;98598.00;;;6.50
35582;BMP180;21687;48.900;9.188;2023-12-20T13:08:01;98607.00;;;6.50
35582;BMP180;21687;48.900;9.188;2023-12-20T13:10:27;98598.00;;;6.30
35582;BMP180;21687;48.900;9.188;2023-12-20T13:12:53;98607.00;;;6.30
35582;BMP180;21687;48.900;9.188;2023-12-20T13:15:20;98597.00;;;6.20
35582;BMP180;21687;48.900;9.188;2023-12-20T13:17:46;98611.00;;;6.30
35582;BMP180;21687;48.900;9.188;2023-12-20T13:20:13;98603.00;;;6.40
35582;BMP180;21687;48.900;9.188;2023-12-20T13:22:39;98601.00;;;6.50
35582;BMP180;21687;48.900;9.188;2023-12-20T13:25:05;98608.00;;;6.50
35582;BMP180;21687;48.900;9.188;2023-12-20T13:27:32;98610.00;;;6.60
35582;BMP180;21687;48.900;9.188;2023-12-20T13:29:59;98619.00;;;6.50
35582;BMP180;21687;48.900;9.188;2023-12-20T13:32:25;98599.00;;;6.40
35582;BMP180;21687;48.900;9.188;2023-12-20T13:34:52;98601.00;;;6.40
35582;BMP180;21687;48.900;9.188;2023-12-20T13:37:18;98622.00;;;6.30
35582;BMP180;21687;48.900;9.188;2023-12-20T13:39:44;98617.00;;;6.10
35582;BMP180;21687;48.900;9.188;2023-12-20T13:42:10;98604.00;;;6.10
35582;BMP180;21687;48.900;9.188;2023-12-20T13:44:37;98601.00;;;6.10
35582;BMP180;21687;48.900;9.188;2023-12-20T13:47:03;98619.00;;;6.10
35582;BMP180;21687;48.900;9.188;2023-12-20T13:49:30;98603.00;;;5.90
35582;BMP180;21687;48.900;9.188;2023-12-20T13:51:56;98612.00;;;5.90
35582;BMP180;21687;48.900;9.188;2023-12-20T13:54:24;98615.00;;;5.80
35582;BMP180;21687;48.900;9.188;2023-12-20T13:56:51;98605.00;;;5.80
35582;BMP180;21687;48.900;9.188;2023-12-20T13:59:17;98608.00;;;5.80
35582;BMP180;21687;48.900;9.188;2023-12-20T14:01:43;98600.00;;;5.70
35582;BMP180;21687;48.900;9.188;2023-12-20T14:04:09;98597.00;;;5.60
35582;BMP180;21687;48.900;9.188;2023-12-20T14:06:37;98587.00;;;5.60
35582;BMP180;21687;48.900;9.188;2023-12-20T14:09:03;98575.00;;;5.50
35582;BMP180;21687;48.900;9.188;2023-12-20T14:11:29;98573.00;;;5.40
35582;BMP180;21687;48.900;9.188;2023-12-20T14:13:56;98581.00;;;5.30
35582;BMP180;21687;48.900;9.188;2023-12-20T14:16:24;98565.00;;;5.20
35582;BMP180;21687;48.900;9.188;2023-12-20T14:18:51;98577.00;;;5.10
35582;BMP180;21687;48.900;9.188;2023-12-20T14:21:23;98569.00;;;5.10
35582;BMP180;21687;48.900;9.188;2023-12-20T14:23:50;98556.00;;;5.00
35582;BMP180;21687;48.900;9.188;2023-12-20T14:26:18;98568.00;;;5.00
35582;BMP180;21687;48.900;9.188;2023-12-20T14:28:44;98571.00;;;4.90
35582;BMP180;21687;48.900;9.188;2023-12-20T14:31:10;98566.00;;;4.80